createdAt,value
2023-04-07T00:02:44.591Z,17.70
2023-04-07T00:07:55.699Z,16.30
2023-04-07T00:12:59.210Z,18.50
2023-04-07T00:18:02.219Z,17.00
2023-04-07T00:23:05.914Z,19.50
2023-04-07T00:28:09.588Z,17.80
2023-04-07T00:33:13.194Z,19.10
2023-04-07T00:38:16.511Z,16.00
2023-04-07T00:43:20.104Z,18.50
2023-04-07T00:48:27.677Z,18.10
2023-04-07T00:53:30.805Z,19.70
2023-04-07T00:58:33.828Z,18.20
2023-04-07T01:03:45.420Z,15.50
2023-04-07T01:08:57.635Z,17.40
2023-04-07T01:14:03.254Z,20.00
2023-04-07T01:19:14.355Z,16.30
2023-04-07T01:24:46.109Z,18.10
2023-04-07T01:29:51.907Z,19.80
2023-04-07T01:34:55.985Z,19.00
2023-04-07T01:39:59.874Z,16.20
2023-04-07T01:45:05.102Z,16.90
2023-04-07T01:50:10.106Z,15.30
2023-04-07T01:55:14.432Z,14.60
2023-04-07T02:00:17.675Z,16.70
2023-04-07T02:05:22.854Z,16.20
2023-04-07T02:10:28.526Z,13.50
2023-04-07T02:15:32.327Z,14.30
2023-04-07T02:20:37.511Z,16.90
2023-04-07T02:25:41.425Z,17.00
2023-04-07T02:30:44.222Z,16.40
2023-04-07T02:35:47.084Z,14.10
2023-04-07T02:40:49.908Z,14.30
2023-04-07T02:45:52.829Z,15.50
2023-04-07T02:50:56.255Z,13.00
2023-04-07T02:55:59.104Z,12.70
2023-04-07T03:01:02.306Z,10.00
2023-04-07T03:06:05.853Z,9.30
2023-04-07T03:11:08.766Z,12.00
2023-04-07T03:16:11.747Z,9.80
2023-04-07T03:21:14.629Z,11.50
2023-04-07T03:26:17.792Z,10.40
2023-04-07T03:31:21.040Z,9.60
2023-04-07T03:36:25.010Z,11.00
2023-04-07T03:41:27.845Z,13.10
2023-04-07T03:46:31.414Z,12.40
2023-04-07T03:51:34.418Z,12.70
2023-04-07T03:56:40.351Z,11.80
2023-04-07T04:01:43.305Z,13.50
2023-04-07T04:06:46.230Z,15.90
2023-04-07T04:11:49.182Z,12.80
2023-04-07T04:16:55.754Z,14.00
2023-04-07T04:21:58.845Z,14.90
2023-04-07T04:27:02.146Z,16.90
2023-04-07T04:32:05.104Z,14.40
2023-04-07T04:37:08.472Z,20.90
2023-04-07T04:42:11.464Z,22.50
2023-04-07T04:47:14.502Z,21.10
2023-04-07T04:52:19.235Z,17.80
2023-04-07T04:57:22.304Z,15.00
2023-04-07T05:02:25.231Z,14.40
2023-04-07T05:07:28.689Z,18.80
2023-04-07T05:12:33.363Z,18.00
2023-04-07T05:17:38.474Z,17.10
2023-04-07T05:22:42.976Z,18.00
2023-04-07T05:27:47.156Z,14.80
2023-04-07T05:32:50.448Z,19.70
2023-04-07T05:37:53.533Z,17.60
2023-04-07T05:42:56.492Z,18.10
2023-04-07T05:47:59.422Z,19.40
2023-04-07T05:53:02.792Z,19.60
2023-04-07T05:58:08.132Z,18.00
2023-04-07T06:03:11.211Z,22.00
2023-04-07T06:08:14.240Z,22.70
2023-04-07T06:13:17.090Z,16.50
2023-04-07T06:18:19.993Z,19.80
2023-04-07T06:23:24.003Z,18.50
2023-04-07T06:28:26.872Z,21.50
2023-04-07T06:33:29.661Z,26.60
2023-04-07T06:38:33.177Z,25.30
2023-04-07T06:43:36.382Z,20.60
2023-04-07T06:48:39.155Z,21.40
2023-04-07T06:53:42.073Z,17.20
2023-04-07T06:58:44.909Z,18.50
2023-04-07T07:03:48.183Z,19.40
2023-04-07T07:08:51.259Z,22.00
2023-04-07T07:13:54.912Z,18.00
2023-04-07T07:18:57.726Z,20.60
2023-04-07T07:24:00.611Z,20.20
2023-04-07T07:29:03.581Z,27.50
2023-04-07T07:34:06.680Z,21.70
2023-04-07T07:39:09.679Z,21.70
2023-04-07T07:44:12.609Z,25.70
2023-04-07T07:49:15.984Z,27.50
2023-04-07T07:54:18.785Z,24.00
2023-04-07T07:59:22.004Z,19.20
2023-04-07T08:04:24.906Z,24.20
2023-04-07T08:09:27.720Z,26.70
2023-04-07T08:14:30.836Z,24.10
2023-04-07T08:19:33.811Z,20.30
2023-04-07T08:24:36.889Z,23.30
2023-04-07T08:29:40.119Z,25.60
2023-04-07T08:34:42.960Z,19.40
2023-04-07T08:39:49.116Z,22.00
2023-04-07T08:44:56.647Z,21.20
2023-04-07T08:50:09.583Z,21.80
2023-04-07T08:55:12.690Z,21.50
2023-04-07T09:00:16.084Z,18.90
2023-04-07T09:05:19.325Z,16.80
2023-04-07T09:10:22.346Z,17.60
2023-04-07T09:15:31.514Z,21.20
2023-04-07T09:21:01.452Z,23.00
2023-04-07T09:26:28.427Z,18.30
2023-04-07T09:31:46.217Z,19.70
2023-04-07T09:36:49.192Z,17.70
2023-04-07T09:41:52.753Z,28.20
2023-04-07T09:46:57.811Z,21.60
2023-04-07T09:52:05.232Z,22.40
2023-04-07T09:57:13.128Z,37.70
2023-04-07T10:02:16.328Z,17.00
2023-04-07T10:07:19.706Z,19.60
2023-04-07T10:12:22.724Z,18.50
2023-04-07T10:17:26.681Z,15.10
2023-04-07T10:22:30.600Z,29.80
2023-04-07T10:27:37.594Z,38.70
2023-04-07T10:32:50.975Z,36.70
2023-04-07T10:38:14.267Z,32.80
2023-04-07T10:43:39.588Z,21.30
2023-04-07T10:48:42.385Z,18.70
2023-04-07T10:54:17.138Z,19.50
2023-04-07T10:59:27.462Z,37.40
2023-04-07T11:04:39.282Z,34.30
2023-04-07T11:09:42.822Z,29.80
2023-04-07T11:14:46.090Z,17.50
2023-04-07T11:19:52.752Z,20.40
2023-04-07T11:24:57.195Z,24.10
2023-04-07T11:30:00.967Z,31.20
2023-04-07T11:35:07.819Z,17.20
2023-04-07T11:40:11.550Z,17.00
2023-04-07T11:45:20.935Z,13.10
2023-04-07T11:50:42.896Z,15.10
2023-04-07T11:55:48.524Z,18.80
2023-04-07T12:00:55.961Z,15.30
2023-04-07T12:05:59.446Z,15.60
2023-04-07T12:11:05.991Z,14.50
2023-04-07T12:16:08.922Z,16.20
2023-04-07T12:21:16.230Z,11.90
2023-04-07T12:26:21.127Z,12.10
2023-04-07T12:31:25.603Z,16.80
2023-04-07T12:36:29.519Z,11.80
2023-04-07T12:41:32.557Z,9.80
2023-04-07T12:46:35.768Z,11.90
2023-04-07T12:51:40.207Z,10.60
2023-04-07T12:56:44.522Z,14.90
2023-04-07T13:01:50.808Z,10.90
2023-04-07T13:06:56.502Z,12.50
2023-04-07T13:11:59.275Z,11.60
2023-04-07T13:17:02.085Z,10.60
2023-04-07T13:22:06.914Z,11.30
2023-04-07T13:27:10.753Z,11.00
2023-04-07T13:32:15.993Z,11.40
2023-04-07T13:37:19.640Z,9.90
2023-04-07T13:42:23.096Z,10.40
2023-04-07T13:47:27.533Z,8.40
2023-04-07T13:52:33.184Z,11.90
2023-04-07T13:57:36.285Z,10.30
2023-04-07T14:02:39.482Z,11.10
2023-04-07T14:07:42.405Z,10.10
2023-04-07T14:12:45.346Z,11.30
2023-04-07T14:17:48.173Z,9.90
2023-04-07T14:22:52.807Z,11.80
2023-04-07T14:27:55.623Z,9.80
2023-04-07T14:32:58.510Z,10.50
2023-04-07T14:38:01.505Z,9.60
2023-04-07T14:43:07.352Z,10.90
2023-04-07T14:48:10.398Z,15.20
2023-04-07T14:53:13.217Z,10.20
2023-04-07T14:58:16.438Z,12.70
2023-04-07T15:03:19.706Z,11.60
2023-04-07T15:08:22.866Z,11.70
2023-04-07T15:13:25.673Z,8.60
2023-04-07T15:18:28.424Z,15.20
2023-04-07T15:23:31.726Z,10.70
2023-04-07T15:28:36.048Z,16.30
2023-04-07T15:33:44.171Z,9.70
2023-04-07T15:38:47.199Z,12.00
2023-04-07T15:43:50.559Z,12.10
2023-04-07T15:48:53.359Z,11.50
2023-04-07T15:53:56.411Z,11.90
2023-04-07T15:58:59.711Z,10.60
2023-04-07T16:04:02.612Z,10.20
2023-04-07T16:09:05.756Z,11.50
2023-04-07T16:14:09.346Z,11.70
2023-04-07T16:19:21.068Z,13.10
2023-04-07T16:24:24.114Z,10.50
2023-04-07T16:29:27.454Z,18.60
2023-04-07T16:34:30.964Z,20.10
2023-04-07T16:39:33.788Z,43.90
2023-04-07T16:44:36.553Z,35.20
2023-04-07T16:49:39.392Z,18.40
2023-04-07T16:54:44.498Z,12.30
2023-04-07T16:59:49.497Z,20.80
2023-04-07T17:04:54.712Z,49.40
2023-04-07T17:09:57.670Z,38.20
2023-04-07T17:15:00.479Z,53.10
2023-04-07T17:20:04.791Z,24.70
2023-04-07T17:25:09.137Z,19.20
2023-04-07T17:30:12.434Z,15.10
2023-04-07T17:35:15.427Z,17.40
2023-04-07T17:40:18.504Z,14.30
2023-04-07T17:45:22.176Z,17.80
2023-04-07T17:50:27.481Z,16.20
2023-04-07T17:55:32.226Z,34.20
2023-04-07T18:00:37.894Z,23.90
2023-04-07T18:05:44.256Z,30.50
2023-04-07T18:10:47.122Z,30.90
2023-04-07T18:15:50.057Z,19.90
2023-04-07T18:20:54.809Z,17.20
2023-04-07T18:25:57.682Z,14.50
2023-04-07T18:31:02.649Z,14.00
2023-04-07T18:36:07.773Z,15.70
2023-04-07T18:41:12.019Z,15.70
2023-04-07T18:46:14.947Z,15.70
2023-04-07T18:51:17.853Z,14.80
2023-04-07T18:56:25.421Z,14.00
2023-04-07T19:01:29.030Z,18.00
2023-04-07T19:06:32.073Z,12.40
2023-04-07T19:11:36.038Z,15.60
2023-04-07T19:16:39.026Z,19.60
2023-04-07T19:21:42.694Z,17.20
2023-04-07T19:31:46.943Z,21.80
2023-04-07T19:36:50.203Z,15.80
2023-04-07T19:41:55.808Z,15.30
2023-04-07T19:46:58.677Z,16.40
2023-04-07T19:52:01.533Z,16.00
2023-04-07T19:57:04.545Z,16.80
2023-04-07T20:02:07.938Z,18.00
2023-04-07T20:07:10.940Z,16.80
2023-04-07T20:12:15.071Z,19.50
2023-04-07T20:17:17.991Z,20.10
2023-04-07T20:22:21.000Z,18.10
2023-04-07T20:27:23.840Z,25.50
2023-04-07T20:32:29.630Z,19.30
2023-04-07T20:37:32.790Z,51.40
2023-04-07T20:42:35.826Z,31.70
2023-04-07T20:47:38.696Z,40.50
2023-04-07T20:52:43.742Z,22.40
2023-04-07T20:57:47.645Z,14.00
2023-04-07T21:02:51.729Z,13.80
2023-04-07T21:07:54.635Z,13.30
2023-04-07T21:12:57.501Z,10.90
2023-04-07T21:18:00.605Z,10.40
2023-04-07T21:23:05.600Z,12.70
2023-04-07T21:28:08.455Z,10.80
2023-04-07T21:33:12.511Z,13.60
2023-04-07T21:38:16.215Z,14.30
2023-04-07T21:43:19.085Z,12.70
2023-04-07T21:48:23.549Z,23.00
2023-04-07T21:53:27.305Z,29.90
2023-04-07T21:58:30.487Z,35.70
2023-04-07T22:03:33.514Z,33.20
2023-04-07T22:08:36.677Z,31.30
2023-04-07T22:13:39.617Z,23.20
2023-04-07T22:18:42.399Z,13.70
2023-04-07T22:23:45.604Z,15.00
2023-04-07T22:28:48.658Z,16.10
2023-04-07T22:33:51.924Z,11.00
2023-04-07T22:38:54.723Z,15.80
2023-04-07T22:43:58.918Z,14.20
2023-04-07T22:49:01.880Z,16.10
2023-04-07T22:54:04.891Z,11.60
2023-04-07T22:59:07.684Z,8.30
2023-04-07T23:04:10.792Z,14.00
2023-04-07T23:09:16.069Z,17.90
2023-04-07T23:14:19.054Z,13.30
2023-04-07T23:19:22.075Z,15.90
2023-04-07T23:24:25.109Z,14.70
2023-04-07T23:29:27.877Z,11.20
2023-04-07T23:34:31.207Z,11.30
2023-04-07T23:39:34.451Z,13.20
2023-04-07T23:44:37.361Z,14.80
2023-04-07T23:49:40.536Z,15.90
2023-04-07T23:54:43.342Z,15.40
2023-04-07T23:59:46.923Z,10.60
